Time;durP1;ratioP1;P1;durP2;ratioP2;P2;SDS_P1;SDS_P2;PMS_P1;PMS_P2;Temp;Humidity;BMP_temperature;BMP_pressure;BME280_temperature;BME280_humidity;BME280_pressure;Samples;Min_cycle;Max_cycle;Signal;HPM_P1;HPM_P2
2022/10/19 00:01:35;;;;;;;5.13;2.15;;;;;;;;;;4969741;28;20395;-67
2022/10/19 00:04:01;;;;;;;2.67;2.00;;;;;;;;;;4969277;28;20344;-67
2022/10/19 00:06:36;;;;;;;2.95;1.88;;;;;;;;;;4951124;28;20383;-67
2022/10/19 00:09:05;;;;;;;2.85;1.90;;;;;;;;;;4969992;28;20328;-68
2022/10/19 00:11:33;;;;;;;4.78;2.10;;;;;;;;;;4950839;28;20399;-67
2022/10/19 00:13:59;;;;;;;5.50;2.90;;;;;;;;;;4950767;28;20363;-67
2022/10/19 00:16:26;;;;;;;2.53;1.98;;;;;;;;;;4950773;28;20391;-68
2022/10/19 00:18:55;;;;;;;2.83;1.67;;;;;;;;;;4951055;28;20424;-67
2022/10/19 00:21:20;;;;;;;3.58;1.95;;;;;;;;;;4951146;28;20436;-68
2022/10/19 00:23:46;;;;;;;3.30;2.08;;;;;;;;;;4968988;28;20460;-68
2022/10/19 00:26:12;;;;;;;2.45;1.70;;;;;;;;;;4951144;28;20340;-68
2022/10/19 00:28:37;;;;;;;5.63;1.70;;;;;;;;;;4966162;28;20107;-67
2022/10/19 00:31:15;;;;;;;2.10;1.50;;;;;;;;;;4987864;28;20060;-67
2022/10/19 00:33:42;;;;;;;2.80;1.70;;;;;;;;;;4989042;28;20328;-69
2022/10/19 00:36:23;;;;;;;3.60;1.80;;;;;;;;;;4970043;28;20393;-67
2022/10/19 00:38:49;;;;;;;3.20;1.90;;;;;;;;;;4970098;28;20392;-68
2022/10/19 00:41:15;;;;;;;3.10;1.92;;;;;;;;;;4988948;28;20365;-68
2022/10/19 00:43:59;;;;;;;4.68;1.65;;;;;;;;;;4988444;28;20395;-67
2022/10/19 00:46:26;;;;;;;4.13;1.98;;;;;;;;;;4988396;28;20036;-67
2022/10/19 00:48:55;;;;;;;2.75;1.83;;;;;;;;;;4969858;28;20345;-67
2022/10/19 00:51:21;;;;;;;4.13;2.15;;;;;;;;;;4987908;28;20344;-67
2022/10/19 00:53:47;;;;;;;5.68;2.30;;;;;;;;;;4970782;28;20321;-68
2022/10/19 00:56:13;;;;;;;2.67;1.75;;;;;;;;;;4987752;28;20094;-69
2022/10/19 00:58:40;;;;;;;2.20;1.60;;;;;;;;;;4988784;28;20186;-67
2022/10/19 01:01:08;;;;;;;2.63;1.88;;;;;;;;;;4970612;28;20479;-68
2022/10/19 01:03:33;;;;;;;5.20;2.47;;;;;;;;;;4996069;28;20471;-67
2022/10/19 01:05:59;;;;;;;9.23;2.17;;;;;;;;;;4988034;28;20356;-67
2022/10/19 01:08:26;;;;;;;3.42;2.17;;;;;;;;;;4987615;28;20336;-68
2022/10/19 01:10:57;;;;;;;4.15;2.35;;;;;;;;;;4969650;28;20344;-67
2022/10/19 01:13:53;;;;;;;3.70;2.20;;;;;;;;;;4987500;28;20447;-68
2022/10/19 01:16:35;;;;;;;11.65;2.70;;;;;;;;;;4987793;28;20408;-67
2022/10/19 01:19:13;;;;;;;3.22;2.33;;;;;;;;;;4969577;28;20443;-67
2022/10/19 01:21:49;;;;;;;3.63;2.00;;;;;;;;;;4988859;28;20436;-67
2022/10/19 01:24:31;;;;;;;3.17;2.38;;;;;;;;;;4969672;28;20047;-68
2022/10/19 01:27:21;;;;;;;5.20;2.78;;;;;;;;;;4985182;28;20471;-67
2022/10/19 01:29:53;;;;;;;3.92;2.50;;;;;;;;;;4967612;28;20403;-68
2022/10/19 01:32:23;;;;;;;3.60;2.80;;;;;;;;;;4968229;28;20442;-68
2022/10/19 01:35:23;;;;;;;2.60;2.13;;;;;;;;;;4950021;28;20603;-68
2022/10/19 01:37:54;;;;;;;5.88;3.28;;;;;;;;;;4945426;28;20474;-68
2022/10/19 01:40:20;;;;;;;4.95;3.03;;;;;;;;;;4949763;28;20506;-68
2022/10/19 01:42:49;;;;;;;5.13;2.60;;;;;;;;;;4967887;28;20448;-69
2022/10/19 01:45:18;;;;;;;3.75;2.85;;;;;;;;;;4968010;28;20022;-67
2022/10/19 01:48:06;;;;;;;4.75;3.10;;;;;;;;;;4968472;28;20464;-67
2022/10/19 01:50:56;;;;;;;3.47;2.70;;;;;;;;;;4950399;28;20472;-67
2022/10/19 01:53:23;;;;;;;5.32;2.67;;;;;;;;;;4970724;28;20033;-68
2022/10/19 01:55:50;;;;;;;3.42;2.53;;;;;;;;;;4953422;28;20029;-68
2022/10/19 01:58:21;;;;;;;4.53;2.45;;;;;;;;;;4953375;28;20547;-67
2022/10/19 02:00:47;;;;;;;3.50;2.15;;;;;;;;;;4953293;28;20073;-68
2022/10/19 02:03:13;;;;;;;2.80;2.10;;;;;;;;;;4954271;28;20025;-67
2022/10/19 02:05:39;;;;;;;3.03;2.00;;;;;;;;;;4970930;28;20436;-67
2022/10/19 02:08:11;;;;;;;3.05;2.10;;;;;;;;;;4952919;28;20464;-67
2022/10/19 02:10:38;;;;;;;4.15;2.45;;;;;;;;;;4972195;28;20448;-67
2022/10/19 02:13:05;;;;;;;4.20;2.28;;;;;;;;;;4952980;28;20048;-67
2022/10/19 02:15:34;;;;;;;3.05;2.20;;;;;;;;;;4953094;28;20348;-68
2022/10/19 02:18:00;;;;;;;3.45;2.17;;;;;;;;;;4952834;28;20340;-67
2022/10/19 02:20:27;;;;;;;4.07;2.35;;;;;;;;;;4970719;28;20350;-68
2022/10/19 02:22:52;;;;;;;3.60;2.10;;;;;;;;;;4972615;28;20346;-68
2022/10/19 02:25:18;;;;;;;3.00;2.08;;;;;;;;;;4952825;28;20438;-67
2022/10/19 02:27:43;;;;;;;3.97;2.17;;;;;;;;;;4970396;28;20433;-67
2022/10/19 02:30:10;;;;;;;4.03;2.00;;;;;;;;;;4952759;28;20340;-67
2022/10/19 02:32:35;;;;;;;3.72;2.55;;;;;;;;;;4953122;28;20163;-68
2022/10/19 02:35:01;;;;;;;2.95;2.13;;;;;;;;;;4970572;28;20503;-67
2022/10/19 02:37:26;;;;;;;3.40;2.25;;;;;;;;;;4952574;28;20348;-68
2022/10/19 02:39:51;;;;;;;2.70;1.92;;;;;;;;;;4953012;28;20471;-68
2022/10/19 02:42:23;;;;;;;3.45;2.40;;;;;;;;;;4953123;28;20052;-68
2022/10/19 02:45:01;;;;;;;4.53;2.33;;;;;;;;;;4970490;28;20440;-67
2022/10/19 02:47:31;;;;;;;8.95;2.40;;;;;;;;;;4952551;28;20460;-68
2022/10/19 02:49:56;;;;;;;4.90;2.17;;;;;;;;;;4952617;28;20470;-68
2022/10/19 02:52:21;;;;;;;4.30;2.08;;;;;;;;;;4970059;28;20337;-68
2022/10/19 02:54:47;;;;;;;2.95;2.05;;;;;;;;;;4970175;28;20344;-68
2022/10/19 02:57:16;;;;;;;2.63;2.00;;;;;;;;;;4971959;28;20383;-67
2022/10/19 02:59:41;;;;;;;2.40;2.00;;;;;;;;;;4970292;28;20404;-67
2022/10/19 03:02:07;;;;;;;2.10;1.90;;;;;;;;;;4970067;28;20420;-68
2022/10/19 03:04:32;;;;;;;3.70;2.20;;;;;;;;;;4951530;28;20353;-67
2022/10/19 03:06:57;;;;;;;4.25;2.33;;;;;;;;;;4970008;28;20325;-67
2022/10/19 03:09:23;;;;;;;3.55;2.38;;;;;;;;;;4969772;28;20352;-68
2022/10/19 03:11:48;;;;;;;3.30;2.60;;;;;;;;;;4969938;28;20033;-67
2022/10/19 03:14:13;;;;;;;4.13;2.53;;;;;;;;;;4951777;28;20440;-67
2022/10/19 03:16:39;;;;;;;2.67;2.10;;;;;;;;;;4969649;28;20475;-67
2022/10/19 03:19:05;;;;;;;5.35;2.60;;;;;;;;;;4970803;28;20434;-67
2022/10/19 03:21:30;;;;;;;2.90;2.22;;;;;;;;;;4969480;28;20318;-67
2022/10/19 03:23:55;;;;;;;3.83;2.63;;;;;;;;;;4952751;28;20038;-67
2022/10/19 03:26:22;;;;;;;5.63;2.88;;;;;;;;;;4969569;28;20322;-67
2022/10/19 03:28:47;;;;;;;4.30;2.70;;;;;;;;;;4969387;28;20152;-67
2022/10/19 03:31:12;;;;;;;5.75;3.75;;;;;;;;;;4969538;28;20037;-67
2022/10/19 03:33:38;;;;;;;7.03;3.67;;;;;;;;;;4969277;28;20448;-67
2022/10/19 03:36:37;;;;;;;6.00;3.42;;;;;;;;;;4969484;28;20450;-67
2022/10/19 03:39:03;;;;;;;;;;;;;;;;;;4936776;28;20476;-67
2022/10/19 03:41:31;;;;;;;6.22;3.85;;;;;;;;;;4969188;28;20324;-68
2022/10/19 03:43:56;;;;;;;8.70;5.30;;;;;;;;;;4969716;28;20445;-67
2022/10/19 03:46:22;;;;;;;9.23;4.75;;;;;;;;;;4969407;28;20437;-67
2022/10/19 03:48:48;;;;;;;7.22;3.38;;;;;;;;;;4969355;28;20456;-67
2022/10/19 03:51:16;;;;;;;4.93;3.17;;;;;;;;;;4951225;28;20037;-67
2022/10/19 03:53:42;;;;;;;7.38;4.38;;;;;;;;;;4969068;28;20030;-67
2022/10/19 03:56:12;;;;;;;4.97;2.80;;;;;;;;;;4951362;28;20060;-67
2022/10/19 03:58:38;;;;;;;5.97;3.13;;;;;;;;;;4971127;28;20341;-67
2022/10/19 04:01:09;;;;;;;6.30;3.67;;;;;;;;;;4969374;28;20387;-67
2022/10/19 04:03:35;;;;;;;4.35;2.75;;;;;;;;;;4950975;28;20025;-67
2022/10/19 04:06:03;;;;;;;5.90;4.00;;;;;;;;;;4968816;28;20484;-67
2022/10/19 04:08:28;;;;;;;7.18;3.08;;;;;;;;;;4968848;28;20508;-67
2022/10/19 04:10:59;;;;;;;6.53;2.80;;;;;;;;;;4951074;28;20429;-67
2022/10/19 04:13:24;;;;;;;7.20;3.55;;;;;;;;;;4968861;28;20457;-67
2022/10/19 04:15:49;;;;;;;5.57;3.50;;;;;;;;;;4967759;28;20364;-67
2022/10/19 04:18:15;;;;;;;6.05;3.67;;;;;;;;;;4969747;28;20057;-67
2022/10/19 04:20:42;;;;;;;8.18;3.75;;;;;;;;;;4968398;28;20551;-67
2022/10/19 04:23:08;;;;;;;5.82;3.65;;;;;;;;;;4968632;28;20561;-68
2022/10/19 04:25:33;;;;;;;4.32;2.80;;;;;;;;;;4950830;28;20459;-67
2022/10/19 04:27:58;;;;;;;5.20;2.78;;;;;;;;;;4968258;28;20073;-67
2022/10/19 04:30:24;;;;;;;4.47;3.10;;;;;;;;;;4968485;28;20501;-67
2022/10/19 04:32:49;;;;;;;5.15;3.03;;;;;;;;;;4950405;28;20443;-67
2022/10/19 04:35:14;;;;;;;9.70;3.47;;;;;;;;;;4970122;28;20389;-67
2022/10/19 04:37:40;;;;;;;6.70;3.40;;;;;;;;;;4970491;28;20429;-67
2022/10/19 04:40:06;;;;;;;5.75;3.75;;;;;;;;;;4968283;28;20392;-67
2022/10/19 04:42:31;;;;;;;7.88;3.63;;;;;;;;;;4968202;28;20391;-67
2022/10/19 04:44:56;;;;;;;5.65;3.53;;;;;;;;;;4968370;28;20392;-67
2022/10/19 04:47:22;;;;;;;4.10;2.90;;;;;;;;;;4968641;28;20166;-68
2022/10/19 04:49:47;;;;;;;5.68;2.83;;;;;;;;;;4968338;28;20564;-67
2022/10/19 04:52:12;;;;;;;8.43;3.53;;;;;;;;;;4969217;28;20084;-67
2022/10/19 04:54:38;;;;;;;9.48;3.90;;;;;;;;;;4968099;28;20427;-67
2022/10/19 04:57:03;;;;;;;9.25;3.30;;;;;;;;;;4968648;28;20463;-67
2022/10/19 04:59:28;;;;;;;12.85;3.88;;;;;;;;;;4968151;28;20424;-68
2022/10/19 05:01:54;;;;;;;8.95;3.03;;;;;;;;;;4950607;28;20439;-67
2022/10/19 05:04:19;;;;;;;5.65;2.92;;;;;;;;;;4968105;28;20414;-67
2022/10/19 05:06:44;;;;;;;11.32;3.80;;;;;;;;;;4968172;28;20398;-67
2022/10/19 05:09:10;;;;;;;4.97;3.03;;;;;;;;;;4968150;28;20240;-67
2022/10/19 05:11:35;;;;;;;9.25;3.10;;;;;;;;;;4968576;28;20503;-68
2022/10/19 05:14:01;;;;;;;4.95;3.30;;;;;;;;;;4950173;28;20395;-67
2022/10/19 05:16:26;;;;;;;12.13;3.10;;;;;;;;;;4968147;28;20532;-67
2022/10/19 05:18:57;;;;;;;5.00;2.78;;;;;;;;;;4968137;28;20333;-67
2022/10/19 05:21:23;;;;;;;3.78;2.70;;;;;;;;;;4968790;28;20428;-67
2022/10/19 05:23:53;;;;;;;4.50;3.40;;;;;;;;;;4968296;28;20026;-67
2022/10/19 05:26:21;;;;;;;10.63;4.15;;;;;;;;;;4968116;28;20507;-67
2022/10/19 05:28:47;;;;;;;7.38;2.90;;;;;;;;;;4971771;28;20552;-67
2022/10/19 05:31:16;;;;;;;5.28;2.67;;;;;;;;;;4953976;28;20460;-67
2022/10/19 05:33:42;;;;;;;8.90;3.47;;;;;;;;;;4971609;28;20030;-67
2022/10/19 05:36:21;;;;;;;5.88;3.10;;;;;;;;;;4937625;28;20595;-67
2022/10/19 05:38:48;;;;;;;3.17;2.50;;;;;;;;;;4971711;28;20368;-67
2022/10/19 05:41:14;;;;;;;4.32;2.50;;;;;;;;;;4971529;28;20664;-67
2022/10/19 05:43:40;;;;;;;5.10;3.70;;;;;;;;;;4937867;28;20407;-67
2022/10/19 05:46:08;;;;;;;5.78;3.03;;;;;;;;;;4953461;28;20428;-67
2022/10/19 05:48:34;;;;;;;5.28;2.42;;;;;;;;;;4972249;28;20444;-67
2022/10/19 05:51:01;;;;;;;5.50;2.95;;;;;;;;;;4971645;28;20362;-67
2022/10/19 05:53:27;;;;;;;3.90;3.05;;;;;;;;;;4953751;28;20456;-67
2022/10/19 05:55:53;;;;;;;5.30;3.13;;;;;;;;;;4971228;28;20052;-67
2022/10/19 05:58:18;;;;;;;6.50;2.90;;;;;;;;;;4971184;28;20436;-67
2022/10/19 06:00:50;;;;;;;5.55;2.78;;;;;;;;;;4971159;28;20365;-68
2022/10/19 06:03:16;;;;;;;5.75;2.95;;;;;;;;;;4971061;28;20044;-68
2022/10/19 06:05:41;;;;;;;5.88;3.40;;;;;;;;;;4971027;28;20523;-67
2022/10/19 06:08:07;;;;;;;5.82;3.15;;;;;;;;;;4971456;28;20424;-67
2022/10/19 06:10:32;;;;;;;6.38;3.70;;;;;;;;;;4971002;28;20365;-67
2022/10/19 06:12:57;;;;;;;5.13;2.90;;;;;;;;;;4971156;28;20535;-67
2022/10/19 06:15:23;;;;;;;4.35;3.35;;;;;;;;;;4970728;28;20388;-67
2022/10/19 06:17:48;;;;;;;5.82;3.30;;;;;;;;;;4970913;28;20519;-67
2022/10/19 06:20:13;;;;;;;7.30;3.28;;;;;;;;;;4970687;28;20579;-67
2022/10/19 06:22:39;;;;;;;9.52;3.88;;;;;;;;;;4971393;28;20510;-68
2022/10/19 06:25:05;;;;;;;6.80;3.55;;;;;;;;;;4952872;28;20398;-68
2022/10/19 06:27:30;;;;;;;7.07;3.75;;;;;;;;;;4972437;28;20388;-67
2022/10/19 06:29:55;;;;;;;5.05;3.45;;;;;;;;;;4952607;28;20459;-67
2022/10/19 06:32:21;;;;;;;7.50;4.50;;;;;;;;;;4972219;28;20352;-67
2022/10/19 06:34:46;;;;;;;4.13;3.28;;;;;;;;;;4971724;28;20507;-67
2022/10/19 06:37:11;;;;;;;7.00;4.07;;;;;;;;;;4970688;28;20527;-68
2022/10/19 06:39:37;;;;;;;7.38;4.00;;;;;;;;;;4969966;28;20540;-68
2022/10/19 06:42:02;;;;;;;6.45;4.47;;;;;;;;;;4971204;28;20511;-67
2022/10/19 06:44:27;;;;;;;6.68;3.95;;;;;;;;;;4970593;28;20457;-67
2022/10/19 06:46:53;;;;;;;6.55;4.10;;;;;;;;;;4970708;28;20064;-67
2022/10/19 06:49:18;;;;;;;7.68;4.78;;;;;;;;;;4971088;28;20525;-67
2022/10/19 06:51:43;;;;;;;7.18;3.35;;;;;;;;;;4970668;28;20325;-68
2022/10/19 06:54:09;;;;;;;8.65;4.05;;;;;;;;;;4970134;28;20546;-68
2022/10/19 06:56:34;;;;;;;8.50;4.25;;;;;;;;;;4952287;28;20451;-67
2022/10/19 06:59:00;;;;;;;5.75;3.50;;;;;;;;;;4972349;28;20396;-67
2022/10/19 07:01:25;;;;;;;7.95;4.55;;;;;;;;;;4970067;28;20037;-67
2022/10/19 07:03:51;;;;;;;6.53;4.70;;;;;;;;;;4969863;28;20310;-67
2022/10/19 07:06:17;;;;;;;10.77;4.20;;;;;;;;;;4953056;28;20029;-67
2022/10/19 07:08:42;;;;;;;8.10;4.25;;;;;;;;;;4971751;28;20292;-68
2022/10/19 07:11:15;;;;;;;6.22;3.25;;;;;;;;;;4952519;28;20420;-67
2022/10/19 07:13:40;;;;;;;6.35;4.00;;;;;;;;;;4969661;28;20388;-68
2022/10/19 07:16:09;;;;;;;5.18;4.18;;;;;;;;;;4951952;28;20175;-67
2022/10/19 07:18:36;;;;;;;6.75;4.03;;;;;;;;;;4952579;28;20455;-67
2022/10/19 07:21:04;;;;;;;9.30;4.47;;;;;;;;;;4951900;28;20484;-67
2022/10/19 07:23:31;;;;;;;6.68;3.70;;;;;;;;;;4970399;28;20367;-67
2022/10/19 07:26:00;;;;;;;5.90;3.72;;;;;;;;;;4951737;28;20436;-67
2022/10/19 07:28:26;;;;;;;;;;;;;;;;;;4970208;28;20407;-67
2022/10/19 07:30:51;;;;;;;7.57;3.65;;;;;;;;;;4970288;28;20251;-67
2022/10/19 07:33:17;;;;;;;7.93;3.67;;;;;;;;;;4970447;28;20037;-68
2022/10/19 07:35:42;;;;;;;7.63;3.25;;;;;;;;;;4969488;28;20049;-67
2022/10/19 07:38:07;;;;;;;8.82;3.70;;;;;;;;;;4969394;28;20424;-67
2022/10/19 07:40:33;;;;;;;7.30;3.72;;;;;;;;;;4970162;28;20401;-67
2022/10/19 07:42:59;;;;;;;9.30;3.65;;;;;;;;;;4969573;28;20502;-67
2022/10/19 07:45:24;;;;;;;10.52;4.28;;;;;;;;;;4969184;28;20076;-67
2022/10/19 07:47:49;;;;;;;7.05;3.60;;;;;;;;;;4969165;28;20052;-67
2022/10/19 07:50:15;;;;;;;7.95;3.25;;;;;;;;;;4951346;28;20412;-67
2022/10/19 07:52:40;;;;;;;5.03;3.13;;;;;;;;;;4969013;28;20440;-67
2022/10/19 07:55:06;;;;;;;6.13;3.35;;;;;;;;;;4951893;28;20440;-67
2022/10/19 07:57:31;;;;;;;11.27;4.00;;;;;;;;;;4969576;28;20335;-67
2022/10/19 07:59:56;;;;;;;4.55;2.30;;;;;;;;;;4968962;28;20454;-67
2022/10/19 08:02:22;;;;;;;6.32;3.15;;;;;;;;;;4951898;28;20383;-67
2022/10/19 08:04:47;;;;;;;7.25;3.53;;;;;;;;;;4968884;28;20037;-67
2022/10/19 08:07:12;;;;;;;8.35;3.75;;;;;;;;;;4969115;28;20520;-67
2022/10/19 08:09:38;;;;;;;6.65;3.28;;;;;;;;;;4951000;28;20305;-67
2022/10/19 08:12:04;;;;;;;6.35;3.17;;;;;;;;;;4951572;28;20302;-68
2022/10/19 08:14:29;;;;;;;5.18;2.75;;;;;;;;;;4968708;28;20435;-67
2022/10/19 08:16:55;;;;;;;8.80;3.00;;;;;;;;;;4968694;28;20468;-67
2022/10/19 08:19:21;;;;;;;5.38;2.92;;;;;;;;;;4969994;28;20385;-67
2022/10/19 08:21:47;;;;;;;5.28;2.33;;;;;;;;;;4968567;28;20340;-67
2022/10/19 08:24:15;;;;;;;4.60;2.70;;;;;;;;;;4950649;28;20025;-67
2022/10/19 08:26:41;;;;;;;6.45;2.58;;;;;;;;;;4951046;28;20376;-67
2022/10/19 08:29:09;;;;;;;4.88;2.50;;;;;;;;;;4967106;28;20075;-67
2022/10/19 08:31:35;;;;;;;8.35;2.35;;;;;;;;;;4953666;28;20348;-67
2022/10/19 08:34:01;;;;;;;5.20;2.40;;;;;;;;;;4988796;28;20343;-67
2022/10/19 08:36:29;;;;;;;8.68;3.67;;;;;;;;;;4987915;28;20112;-67
2022/10/19 08:38:55;;;;;;;5.60;2.75;;;;;;;;;;4988938;28;20456;-67
2022/10/19 08:41:26;;;;;;;14.07;4.25;;;;;;;;;;4989173;28;20430;-67
2022/10/19 08:44:12;;;;;;;11.75;3.92;;;;;;;;;;4969963;28;20064;-67
2022/10/19 08:46:59;;;;;;;19.83;5.28;;;;;;;;;;4987916;28;20103;-67
2022/10/19 08:49:26;;;;;;;16.23;5.60;;;;;;;;;;4988074;28;20318;-66
2022/10/19 08:52:00;;;;;;;11.95;4.63;;;;;;;;;;4970086;28;20344;-67
2022/10/19 08:54:34;;;;;;;14.70;5.50;;;;;;;;;;4969797;28;20440;-67
2022/10/19 08:57:29;;;;;;;10.13;3.65;;;;;;;;;;4954080;28;20364;-67
2022/10/19 09:00:11;;;;;;;8.52;4.55;;;;;;;;;;4975685;28;20467;-67
2022/10/19 09:02:46;;;;;;;6.72;2.33;;;;;;;;;;4990185;28;20454;-67
2022/10/19 09:05:30;;;;;;;5.65;2.20;;;;;;;;;;4991660;28;20060;-67
2022/10/19 09:07:56;;;;;;;7.68;2.80;;;;;;;;;;4973707;28;20414;-67
2022/10/19 09:10:26;;;;;;;5.28;2.08;;;;;;;;;;4974542;28;20118;-67
2022/10/19 09:13:10;;;;;;;5.38;2.45;;;;;;;;;;4973857;28;20489;-67
2022/10/19 09:15:41;;;;;;;5.18;2.22;;;;;;;;;;4991890;28;20037;-67
2022/10/19 09:18:12;;;;;;;6.30;2.33;;;;;;;;;;4974246;28;20355;-68
2022/10/19 09:20:40;;;;;;;3.67;2.10;;;;;;;;;;4973691;28;20335;-67
2022/10/19 09:23:35;;;;;;;5.13;2.08;;;;;;;;;;4993097;28;20051;-67
2022/10/19 09:26:01;;;;;;;6.25;2.00;;;;;;;;;;4991107;28;20045;-67
2022/10/19 09:28:48;;;;;;;7.95;1.90;;;;;;;;;;4973035;28;20506;-67
2022/10/19 09:31:36;;;;;;;4.75;2.00;;;;;;;;;;4991301;28;20394;-67
2022/10/19 09:34:05;;;;;;;4.97;2.17;;;;;;;;;;4991611;28;20525;-66
2022/10/19 09:36:37;;;;;;;9.75;2.20;;;;;;;;;;4973379;28;20424;-67
2022/10/19 09:39:03;;;;;;;5.10;2.22;;;;;;;;;;4973373;28;20436;-67
2022/10/19 09:41:29;;;;;;;5.78;1.88;;;;;;;;;;4973196;28;20431;-67
2022/10/19 09:43:55;;;;;;;5.22;2.33;;;;;;;;;;4991227;28;20336;-67
2022/10/19 09:46:28;;;;;;;13.30;2.63;;;;;;;;;;4990921;28;20455;-67
2022/10/19 09:48:53;;;;;;;8.38;2.33;;;;;;;;;;4972963;28;20340;-67
2022/10/19 09:51:20;;;;;;;4.18;1.55;;;;;;;;;;4992033;28;20057;-67
2022/10/19 09:53:54;;;;;;;5.05;1.58;;;;;;;;;;4972826;28;20174;-67
2022/10/19 09:56:25;;;;;;;3.65;2.15;;;;;;;;;;4973145;28;20041;-67
2022/10/19 09:58:56;;;;;;;6.57;1.45;;;;;;;;;;4990695;28;20400;-67
2022/10/19 10:01:32;;;;;;;5.55;2.40;;;;;;;;;;4990798;28;20387;-67
2022/10/19 10:04:14;;;;;;;5.97;1.92;;;;;;;;;;4991104;28;20427;-67
2022/10/19 10:06:40;;;;;;;4.75;1.80;;;;;;;;;;4990673;28;20455;-68
2022/10/19 10:09:05;;;;;;;4.32;1.90;;;;;;;;;;4992645;28;20360;-66
2022/10/19 10:11:33;;;;;;;7.95;2.17;;;;;;;;;;4990590;28;20068;-66
2022/10/19 10:14:05;;;;;;;4.33;2.23;;;;;;;;;;4971624;28;20466;-66
2022/10/19 10:16:33;;;;;;;5.28;1.73;;;;;;;;;;4972530;28;20478;-67
2022/10/19 10:19:03;;;;;;;7.25;1.90;;;;;;;;;;4990538;28;20359;-66
2022/10/19 10:21:46;;;;;;;3.55;1.90;;;;;;;;;;4972337;28;20111;-67
2022/10/19 10:24:11;;;;;;;5.10;1.95;;;;;;;;;;4972212;28;20348;-67
2022/10/19 10:26:51;;;;;;;3.25;1.95;;;;;;;;;;4972329;28;20344;-66
2022/10/19 10:29:20;;;;;;;2.55;1.60;;;;;;;;;;4972246;28;20065;-67
2022/10/19 10:31:55;;;;;;;4.13;1.83;;;;;;;;;;4952548;28;20527;-67
2022/10/19 10:34:35;;;;;;;6.03;2.20;;;;;;;;;;4952463;28;20455;-67
2022/10/19 10:37:02;;;;;;;3.67;1.92;;;;;;;;;;4970502;28;20399;-67
2022/10/19 10:39:28;;;;;;;7.18;2.28;;;;;;;;;;4970318;28;20433;-67
2022/10/19 10:41:58;;;;;;;6.32;2.05;;;;;;;;;;4952311;28;20471;-67
2022/10/19 10:44:28;;;;;;;5.60;2.25;;;;;;;;;;4952396;28;20455;-67
2022/10/19 10:47:01;;;;;;;4.78;2.00;;;;;;;;;;4971880;28;20090;-67
2022/10/19 10:49:36;;;;;;;2.95;1.75;;;;;;;;;;4952284;28;20392;-67
2022/10/19 10:52:06;;;;;;;5.43;1.80;;;;;;;;;;4952947;28;20026;-67
2022/10/19 10:54:32;;;;;;;3.55;1.73;;;;;;;;;;4971131;28;20473;-67
2022/10/19 10:57:08;;;;;;;5.60;1.95;;;;;;;;;;4952150;28;20417;-67
2022/10/19 10:59:44;;;;;;;2.70;1.75;;;;;;;;;;4969865;28;20471;-67
2022/10/19 11:02:14;;;;;;;2.17;1.50;;;;;;;;;;4952097;28;20355;-67
2022/10/19 11:04:49;;;;;;;2.70;1.48;;;;;;;;;;4952155;28;20387;-66
2022/10/19 11:07:20;;;;;;;2.75;1.67;;;;;;;;;;4969642;28;20433;-67
2022/10/19 11:09:56;;;;;;;4.50;1.60;;;;;;;;;;4952486;28;20025;-67
2022/10/19 11:12:46;;;;;;;4.93;2.15;;;;;;;;;;4951829;28;20462;-67
2022/10/19 11:15:27;;;;;;;8.02;1.70;;;;;;;;;;4951875;28;20051;-67
2022/10/19 11:18:13;;;;;;;3.47;1.83;;;;;;;;;;4951836;28;20474;-67
2022/10/19 11:20:46;;;;;;;3.40;1.83;;;;;;;;;;4951925;28;20041;-67
2022/10/19 11:23:18;;;;;;;4.15;1.80;;;;;;;;;;4969728;28;20420;-67
2022/10/19 11:26:18;;;;;;;3.92;1.60;;;;;;;;;;4951321;28;20436;-67
2022/10/19 11:28:46;;;;;;;2.90;1.50;;;;;;;;;;4961637;28;20384;-67
2022/10/19 11:31:33;;;;;;;3.20;1.40;;;;;;;;;;4969415;28;20034;-67
2022/10/19 11:34:02;;;;;;;5.13;1.60;;;;;;;;;;4951824;28;20414;-67
2022/10/19 11:36:55;;;;;;;6.93;1.95;;;;;;;;;;4952221;28;20452;-67
2022/10/19 11:39:40;;;;;;;5.57;1.67;;;;;;;;;;4970054;28;20455;-67
2022/10/19 11:42:17;;;;;;;2.58;1.20;;;;;;;;;;4948270;28;20468;-67
2022/10/19 11:45:17;;;;;;;4.30;1.63;;;;;;;;;;4969433;28;20425;-67
2022/10/19 11:48:39;;;;;;;5.20;1.38;;;;;;;;;;4955828;28;20515;-67
2022/10/19 11:51:10;;;;;;;2.78;1.20;;;;;;;;;;4927705;28;20469;-67
2022/10/19 11:53:54;;;;;;;3.38;1.40;;;;;;;;;;4927682;28;20034;-67
2022/10/19 11:56:27;;;;;;;2.05;1.05;;;;;;;;;;4941181;28;20430;-67
2022/10/19 11:58:59;;;;;;;2.90;1.35;;;;;;;;;;4969921;28;20356;-67
2022/10/19 12:01:35;;;;;;;2.35;1.20;;;;;;;;;;4951143;28;20411;-67
2022/10/19 12:04:19;;;;;;;2.90;1.30;;;;;;;;;;4968911;28;20022;-67
2022/10/19 12:06:52;;;;;;;2.53;1.25;;;;;;;;;;4970363;28;20442;-67
2022/10/19 12:09:45;;;;;;;2.35;1.42;;;;;;;;;;4969306;28;20459;-67
2022/10/19 12:12:29;;;;;;;3.45;1.50;;;;;;;;;;4968816;28;20476;-67
2022/10/19 12:15:02;;;;;;;6.43;1.40;;;;;;;;;;4950991;28;20106;-67
2022/10/19 12:17:32;;;;;;;1.83;1.35;;;;;;;;;;4951208;28;20506;-67
2022/10/19 12:20:02;;;;;;;2.72;1.23;;;;;;;;;;4969740;28;20440;-67
2022/10/19 12:22:29;;;;;;;4.45;1.38;;;;;;;;;;4951123;28;20420;-67
2022/10/19 12:24:57;;;;;;;3.60;1.30;;;;;;;;;;4950458;28;20516;-67
2022/10/19 12:27:34;;;;;;;5.00;1.33;;;;;;;;;;4968450;28;20456;-67
2022/10/19 12:30:26;;;;;;;4.07;1.02;;;;;;;;;;4951437;28;20548;-67
2022/10/19 12:32:59;;;;;;;2.53;0.80;;;;;;;;;;4948587;28;20357;-67
2022/10/19 12:35:30;;;;;;;5.28;2.13;;;;;;;;;;4950542;28;20391;-67
2022/10/19 12:38:17;;;;;;;2.80;1.25;;;;;;;;;;4967556;28;20348;-67
2022/10/19 12:41:03;;;;;;;2.45;1.00;;;;;;;;;;4968091;28;20451;-67
2022/10/19 12:43:35;;;;;;;1.55;1.20;;;;;;;;;;4950550;28;20453;-67
2022/10/19 12:46:20;;;;;;;3.92;1.60;;;;;;;;;;4951098;28;20348;-67
2022/10/19 12:48:45;;;;;;;3.42;1.48;;;;;;;;;;4950654;28;20021;-66
2022/10/19 12:51:13;;;;;;;3.53;1.20;;;;;;;;;;4950319;28;20051;-66
2022/10/19 12:53:41;;;;;;;2.88;1.48;;;;;;;;;;4950458;28;20511;-67
2022/10/19 12:56:07;;;;;;;4.80;1.30;;;;;;;;;;4950708;28;20450;-67
2022/10/19 12:58:46;;;;;;;3.47;1.10;;;;;;;;;;4968209;28;20506;-67
2022/10/19 13:01:32;;;;;;;3.92;1.63;;;;;;;;;;4950389;28;20030;-67
2022/10/19 13:04:23;;;;;;;2.83;1.08;;;;;;;;;;4968534;28;20440;-67
2022/10/19 13:06:57;;;;;;;1.45;0.75;;;;;;;;;;4968277;28;20531;-67
2022/10/19 13:09:28;;;;;;;5.43;1.85;;;;;;;;;;4951318;28;20506;-67
2022/10/19 13:12:18;;;;;;;2.30;1.35;;;;;;;;;;4950338;28;20026;-67
2022/10/19 13:14:47;;;;;;;2.97;1.10;;;;;;;;;;4948648;28;20346;-67
2022/10/19 13:17:33;;;;;;;3.80;1.27;;;;;;;;;;4950520;28;20407;-67
2022/10/19 13:20:13;;;;;;;1.33;1.08;;;;;;;;;;4960415;28;20519;-67
2022/10/19 13:23:04;;;;;;;3.20;1.20;;;;;;;;;;4967833;28;20033;-67
2022/10/19 13:25:33;;;;;;;3.05;1.17;;;;;;;;;;4967937;28;20456;-67
2022/10/19 13:28:01;;;;;;;3.45;1.30;;;;;;;;;;4967763;28;20383;-67
2022/10/19 13:30:42;;;;;;;5.07;1.45;;;;;;;;;;4950145;28;20387;-67
2022/10/19 13:33:30;;;;;;;3.47;1.10;;;;;;;;;;4968061;28;20129;-67
2022/10/19 13:35:58;;;;;;;4.10;1.35;;;;;;;;;;4967602;28;20435;-67
2022/10/19 13:38:30;;;;;;;3.38;1.40;;;;;;;;;;4967756;28;20318;-68
2022/10/19 13:41:05;;;;;;;2.42;1.38;;;;;;;;;;4969217;28;20068;-67
2022/10/19 13:43:38;;;;;;;5.28;1.60;;;;;;;;;;4969281;28;20408;-67
2022/10/19 13:46:08;;;;;;;5.70;1.42;;;;;;;;;;4949840;28;20065;-67
2022/10/19 13:48:33;;;;;;;3.70;1.08;;;;;;;;;;4951895;28;20112;-67
2022/10/19 13:51:25;;;;;;;2.78;1.42;;;;;;;;;;4971330;28;20459;-67
2022/10/19 13:54:27;;;;;;;4.45;1.20;;;;;;;;;;4940232;28;20453;-67
2022/10/19 13:57:17;;;;;;;2.15;1.05;;;;;;;;;;4953955;28;20451;-67
2022/10/19 13:59:54;;;;;;;2.00;1.08;;;;;;;;;;4972564;28;20451;-67
2022/10/19 14:02:37;;;;;;;3.50;1.30;;;;;;;;;;4953840;28;20479;-67
2022/10/19 14:05:27;;;;;;;2.65;1.52;;;;;;;;;;4971068;28;20499;-67
2022/10/19 14:08:14;;;;;;;3.20;1.45;;;;;;;;;;4971087;28;20436;-67
2022/10/19 14:10:40;;;;;;;3.63;1.20;;;;;;;;;;4970921;28;20352;-67
2022/10/19 14:13:12;;;;;;;4.78;1.35;;;;;;;;;;4953038;28;20364;-67
2022/10/19 14:15:38;;;;;;;4.30;1.38;;;;;;;;;;4971020;28;20523;-67
2022/10/19 14:18:21;;;;;;;6.85;1.15;;;;;;;;;;4970816;28;20461;-67
2022/10/19 14:20:58;;;;;;;2.25;1.13;;;;;;;;;;4970640;28;20490;-67
2022/10/19 14:23:27;;;;;;;3.17;1.10;;;;;;;;;;4953112;28;20452;-67
2022/10/19 14:26:19;;;;;;;7.82;3.20;;;;;;;;;;4971145;28;20432;-67
2022/10/19 14:28:51;;;;;;;2.35;1.38;;;;;;;;;;4968507;28;20112;-67
2022/10/19 14:31:19;;;;;;;2.97;1.33;;;;;;;;;;4970794;28;20445;-67
2022/10/19 14:33:46;;;;;;;2.17;1.38;;;;;;;;;;4970982;28;20030;-67
2022/10/19 14:36:16;;;;;;;5.65;1.90;;;;;;;;;;4953460;28;20379;-67
2022/10/19 14:38:42;;;;;;;3.25;1.70;;;;;;;;;;4952894;28;20129;-67
2022/10/19 14:41:31;;;;;;;6.47;2.45;;;;;;;;;;4971304;28;20428;-67
2022/10/19 14:43:58;;;;;;;4.60;1.25;;;;;;;;;;4970706;28;20061;-67
2022/10/19 14:46:25;;;;;;;5.53;1.52;;;;;;;;;;4952667;28;20339;-67
2022/10/19 14:48:58;;;;;;;8.70;2.03;;;;;;;;;;4971252;28;20191;-67
2022/10/19 14:51:36;;;;;;;4.80;1.67;;;;;;;;;;4952508;28;20510;-67
2022/10/19 14:54:16;;;;;;;3.03;1.38;;;;;;;;;;4970054;28;20535;-67
2022/10/19 14:56:48;;;;;;;4.03;1.88;;;;;;;;;;4970183;28;20494;-67
2022/10/19 14:59:29;;;;;;;6.45;2.17;;;;;;;;;;4951633;28;20433;-67
2022/10/19 15:01:58;;;;;;;6.47;1.95;;;;;;;;;;4971375;28;20340;-67
2022/10/19 15:04:36;;;;;;;9.05;2.50;;;;;;;;;;4936078;28;20030;-67
2022/10/19 15:07:04;;;;;;;3.72;1.63;;;;;;;;;;4952184;28;20018;-67